Saint-Dizier-Robinson (BA 113) Air Base

Airport
ICAO code: 
LFSI
Summary
ICAO Region: 
EUR
Territory: 
Location: 
, Champagne-Ardenne
Serving: 
St.-dizier
Elevation: 
458 ft
Coordinates: 
Aerial View: 
48° 38' 9.629" N, 4° 53' 57.901" E
Metar
Observation
LFSI 302200Z AUTO 22012KT 9999 OVC009 06/04 Q1015
Station
St-Dizier
Date/Time
2021-11-30 22:00:00
Wind direction
220°
Wind speed
12 kts
Lowest cloud amount
overcast
Temperature
6°C
Dew point
4°C
Humidity
86%
QNH
1015 hPa
Weather condition
n/a

Runways

Designator Length Width Surface Rops
11/29 2412 45 ASP No/No
Airport map: 
Aerial View: 

SKYbrary Partners:

Safety knowledge contributed by: